sensor_id;sensor_type;location;lat;lon;timestamp;pressure;altitude;pressure_sealevel;temperature;humidity
6389;BME280;3227;42.654;23.360;2023-04-25T00:01:32;93711.03;;;13.24;100.00
6389;BME280;3227;42.654;23.360;2023-04-25T00:04:01;93709.16;;;13.31;100.00
6389;BME280;3227;42.654;23.360;2023-04-25T00:06:28;93691.88;;;13.36;100.00
6389;BME280;3227;42.654;23.360;2023-04-25T00:08:57;93684.16;;;13.36;100.00
6389;BME280;3227;42.654;23.360;2023-04-25T00:11:24;93637.53;;;13.13;100.00
6389;BME280;3227;42.654;23.360;2023-04-25T00:13:50;93672.94;;;13.39;100.00
6389;BME280;3227;42.654;23.360;2023-04-25T00:16:18;93655.97;;;13.31;100.00
6389;BME280;3227;42.654;23.360;2023-04-25T00:18:46;93668.63;;;13.41;100.00
6389;BME280;3227;42.654;23.360;2023-04-25T00:21:17;93660.06;;;13.40;100.00
6389;BME280;3227;42.654;23.360;2023-04-25T00:23:45;93655.63;;;13.45;100.00
6389;BME280;3227;42.654;23.360;2023-04-25T00:26:12;93648.78;;;13.44;100.00
6389;BME280;3227;42.654;23.360;2023-04-25T00:28:39;93642.97;;;13.36;100.00
6389;BME280;3227;42.654;23.360;2023-04-25T00:31:06;93644.00;;;13.30;100.00
6389;BME280;3227;42.654;23.360;2023-04-25T00:33:33;93630.78;;;13.09;100.00
6389;BME280;3227;42.654;23.360;2023-04-25T00:36:01;93641.25;;;13.01;100.00
6389;BME280;3227;42.654;23.360;2023-04-25T00:38:28;93643.31;;;12.85;100.00
6389;BME280;3227;42.654;23.360;2023-04-25T00:40:55;93634.06;;;12.78;100.00
6389;BME280;3227;42.654;23.360;2023-04-25T00:43:23;93642.91;;;12.67;100.00
6389;BME280;3227;42.654;23.360;2023-04-25T00:45:52;93630.25;;;12.57;100.00
6389;BME280;3227;42.654;23.360;2023-04-25T00:48:22;93593.19;;;12.29;100.00
6389;BME280;3227;42.654;23.360;2023-04-25T00:50:51;93629.47;;;12.54;100.00
6389;BME280;3227;42.654;23.360;2023-04-25T00:53:20;93629.78;;;12.39;100.00
6389;BME280;3227;42.654;23.360;2023-04-25T00:55:47;93627.28;;;12.36;100.00
6389;BME280;3227;42.654;23.360;2023-04-25T00:58:16;93604.44;;;12.24;100.00
6389;BME280;3227;42.654;23.360;2023-04-25T01:00:44;93617.38;;;12.19;100.00
6389;BME280;3227;42.654;23.360;2023-04-25T01:03:12;93629.09;;;11.89;100.00
6389;BME280;3227;42.654;23.360;2023-04-25T01:05:40;93635.25;;;11.82;100.00
6389;BME280;3227;42.654;23.360;2023-04-25T01:08:08;93599.78;;;11.55;100.00
6389;BME280;3227;42.654;23.360;2023-04-25T01:10:36;93634.56;;;11.71;100.00
6389;BME280;3227;42.654;23.360;2023-04-25T01:13:03;93611.00;;;11.51;100.00
6389;BME280;3227;42.654;23.360;2023-04-25T01:15:30;93539.03;;;11.12;100.00
6389;BME280;3227;42.654;23.360;2023-04-25T01:17:57;93598.75;;;11.65;100.00
6389;BME280;3227;42.654;23.360;2023-04-25T01:20:26;93595.50;;;11.57;100.00
6389;BME280;3227;42.654;23.360;2023-04-25T01:22:55;93596.78;;;11.79;100.00
6389;BME280;3227;42.654;23.360;2023-04-25T01:25:22;93569.63;;;11.69;100.00
6389;BME280;3227;42.654;23.360;2023-04-25T01:27:49;93595.34;;;11.64;100.00
6389;BME280;3227;42.654;23.360;2023-04-25T01:30:21;93574.63;;;11.29;100.00
6389;BME280;3227;42.654;23.360;2023-04-25T01:32:49;93590.75;;;11.35;100.00
6389;BME280;3227;42.654;23.360;2023-04-25T01:35:16;93577.31;;;11.21;100.00
6389;BME280;3227;42.654;23.360;2023-04-25T01:37:44;93592.78;;;11.18;100.00
6389;BME280;3227;42.654;23.360;2023-04-25T01:40:13;93609.94;;;11.13;100.00
6389;BME280;3227;42.654;23.360;2023-04-25T01:42:41;93609.84;;;11.19;100.00
6389;BME280;3227;42.654;23.360;2023-04-25T01:45:10;93601.97;;;11.28;100.00
6389;BME280;3227;42.654;23.360;2023-04-25T01:47:37;93584.84;;;11.30;100.00
6389;BME280;3227;42.654;23.360;2023-04-25T01:50:06;93609.22;;;11.54;100.00
6389;BME280;3227;42.654;23.360;2023-04-25T01:52:33;93613.16;;;11.72;100.00
6389;BME280;3227;42.654;23.360;2023-04-25T01:55:01;93618.09;;;11.84;100.00
6389;BME280;3227;42.654;23.360;2023-04-25T01:57:29;93593.44;;;11.77;100.00
6389;BME280;3227;42.654;23.360;2023-04-25T01:59:59;93612.81;;;11.92;100.00
6389;BME280;3227;42.654;23.360;2023-04-25T02:02:26;93594.03;;;11.88;100.00
6389;BME280;3227;42.654;23.360;2023-04-25T02:04:53;93619.34;;;12.06;100.00
6389;BME280;3227;42.654;23.360;2023-04-25T02:07:21;93608.16;;;12.10;100.00
6389;BME280;3227;42.654;23.360;2023-04-25T02:09:48;93602.88;;;12.16;100.00
6389;BME280;3227;42.654;23.360;2023-04-25T02:12:15;93584.13;;;12.13;100.00
6389;BME280;3227;42.654;23.360;2023-04-25T02:14:43;93592.47;;;12.23;100.00
6389;BME280;3227;42.654;23.360;2023-04-25T02:17:10;93594.91;;;12.29;100.00
6389;BME280;3227;42.654;23.360;2023-04-25T02:19:38;93594.88;;;12.30;100.00
6389;BME280;3227;42.654;23.360;2023-04-25T02:22:05;93596.44;;;12.37;100.00
6389;BME280;3227;42.654;23.360;2023-04-25T02:24:31;93581.97;;;12.33;100.00
6389;BME280;3227;42.654;23.360;2023-04-25T02:27:00;93568.34;;;12.30;100.00
6389;BME280;3227;42.654;23.360;2023-04-25T02:29:26;93569.97;;;12.34;100.00
6389;BME280;3227;42.654;23.360;2023-04-25T02:31:55;93566.53;;;12.35;100.00
6389;BME280;3227;42.654;23.360;2023-04-25T02:34:22;93553.16;;;12.19;100.00
6389;BME280;3227;42.654;23.360;2023-04-25T02:36:49;93568.47;;;12.25;100.00
6389;BME280;3227;42.654;23.360;2023-04-25T02:39:16;93558.22;;;12.24;100.00
6389;BME280;3227;42.654;23.360;2023-04-25T02:41:43;93569.31;;;12.26;100.00
6389;BME280;3227;42.654;23.360;2023-04-25T02:44:09;93565.81;;;12.28;100.00
6389;BME280;3227;42.654;23.360;2023-04-25T02:46:36;93550.72;;;12.14;100.00
6389;BME280;3227;42.654;23.360;2023-04-25T02:49:04;93570.19;;;12.25;100.00
6389;BME280;3227;42.654;23.360;2023-04-25T02:51:31;93566.78;;;12.23;100.00
6389;BME280;3227;42.654;23.360;2023-04-25T02:53:58;93561.72;;;12.19;100.00
6389;BME280;3227;42.654;23.360;2023-04-25T02:56:25;93550.66;;;12.17;100.00
6389;BME280;3227;42.654;23.360;2023-04-25T02:58:52;93548.97;;;12.16;100.00
6389;BME280;3227;42.654;23.360;2023-04-25T03:01:19;93505.81;;;11.94;100.00
6389;BME280;3227;42.654;23.360;2023-04-25T03:03:46;93554.84;;;12.20;100.00
6389;BME280;3227;42.654;23.360;2023-04-25T03:06:14;93548.03;;;12.19;100.00
6389;BME280;3227;42.654;23.360;2023-04-25T03:08:41;93556.53;;;12.23;100.00
6389;BME280;3227;42.654;23.360;2023-04-25T03:11:08;93536.13;;;12.16;100.00
6389;BME280;3227;42.654;23.360;2023-04-25T03:13:35;93540.47;;;12.13;100.00
6389;BME280;3227;42.654;23.360;2023-04-25T03:16:02;93539.06;;;12.00;100.00
6389;BME280;3227;42.654;23.360;2023-04-25T03:18:29;93545.22;;;11.91;100.00
6389;BME280;3227;42.654;23.360;2023-04-25T03:20:56;93539.81;;;12.03;100.00
6389;BME280;3227;42.654;23.360;2023-04-25T03:23:24;93544.75;;;12.12;100.00
6389;BME280;3227;42.654;23.360;2023-04-25T03:25:51;93475.72;;;11.59;100.00
6389;BME280;3227;42.654;23.360;2023-04-25T03:28:18;93550.25;;;11.96;100.00
6389;BME280;3227;42.654;23.360;2023-04-25T03:30:45;93545.78;;;12.04;100.00
6389;BME280;3227;42.654;23.360;2023-04-25T03:33:12;93542.22;;;12.11;100.00
6389;BME280;3227;42.654;23.360;2023-04-25T03:35:38;93542.13;;;12.15;100.00
6389;BME280;3227;42.654;23.360;2023-04-25T03:38:05;93510.91;;;11.95;100.00
6389;BME280;3227;42.654;23.360;2023-04-25T03:40:33;93537.53;;;11.91;100.00
6389;BME280;3227;42.654;23.360;2023-04-25T03:43:00;93540.09;;;11.91;100.00
6389;BME280;3227;42.654;23.360;2023-04-25T03:45:27;93537.75;;;11.79;100.00
6389;BME280;3227;42.654;23.360;2023-04-25T03:47:54;93546.97;;;11.89;100.00
6389;BME280;3227;42.654;23.360;2023-04-25T03:50:21;93545.41;;;11.82;100.00
6389;BME280;3227;42.654;23.360;2023-04-25T03:52:47;93547.00;;;11.88;100.00
6389;BME280;3227;42.654;23.360;2023-04-25T03:55:15;93524.31;;;12.09;100.00
6389;BME280;3227;42.654;23.360;2023-04-25T03:57:43;93541.59;;;12.40;100.00
6389;BME280;3227;42.654;23.360;2023-04-25T04:00:11;93509.13;;;13.05;100.00
6389;BME280;3227;42.654;23.360;2023-04-25T04:02:38;93538.53;;;13.61;97.46
6389;BME280;3227;42.654;23.360;2023-04-25T04:05:05;93521.81;;;14.05;94.81
6389;BME280;3227;42.654;23.360;2023-04-25T04:07:32;93532.97;;;14.06;92.64
6389;BME280;3227;42.654;23.360;2023-04-25T04:10:02;93546.47;;;14.14;92.49
6389;BME280;3227;42.654;23.360;2023-04-25T04:12:30;93559.47;;;14.40;91.16
6389;BME280;3227;42.654;23.360;2023-04-25T04:14:58;93550.66;;;15.00;89.23
6389;BME280;3227;42.654;23.360;2023-04-25T04:17:25;93569.06;;;15.42;86.65
6389;BME280;3227;42.654;23.360;2023-04-25T04:19:52;93562.63;;;15.03;86.19
6389;BME280;3227;42.654;23.360;2023-04-25T04:22:19;93546.47;;;14.43;88.06
6389;BME280;3227;42.654;23.360;2023-04-25T04:24:46;93445.63;;;12.76;94.36
6389;BME280;3227;42.654;23.360;2023-04-25T04:27:13;93520.91;;;12.80;97.39
6389;BME280;3227;42.654;23.360;2023-04-25T04:29:45;93552.06;;;12.68;100.00
6389;BME280;3227;42.654;23.360;2023-04-25T04:32:14;93520.78;;;12.50;100.00
6389;BME280;3227;42.654;23.360;2023-04-25T04:34:41;93549.22;;;12.78;100.00
6389;BME280;3227;42.654;23.360;2023-04-25T04:37:08;93546.41;;;12.53;100.00
6389;BME280;3227;42.654;23.360;2023-04-25T04:39:35;93551.09;;;11.96;100.00
6389;BME280;3227;42.654;23.360;2023-04-25T04:42:02;93511.47;;;11.68;100.00
6389;BME280;3227;42.654;23.360;2023-04-25T04:44:30;93548.53;;;11.96;100.00
6389;BME280;3227;42.654;23.360;2023-04-25T04:46:59;93549.78;;;12.18;100.00
6389;BME280;3227;42.654;23.360;2023-04-25T04:49:28;93553.41;;;12.10;100.00
6389;BME280;3227;42.654;23.360;2023-04-25T04:51:55;93550.75;;;11.70;100.00
6389;BME280;3227;42.654;23.360;2023-04-25T04:54:22;93555.53;;;11.88;100.00
6389;BME280;3227;42.654;23.360;2023-04-25T04:56:49;93568.81;;;12.08;100.00
6389;BME280;3227;42.654;23.360;2023-04-25T04:59:16;93562.84;;;12.08;100.00
6389;BME280;3227;42.654;23.360;2023-04-25T05:01:43;93563.69;;;12.08;100.00
6389;BME280;3227;42.654;23.360;2023-04-25T05:04:11;93564.00;;;11.93;100.00
6389;BME280;3227;42.654;23.360;2023-04-25T05:06:39;93561.56;;;11.87;100.00
6389;BME280;3227;42.654;23.360;2023-04-25T05:09:06;93566.41;;;11.58;100.00
6389;BME280;3227;42.654;23.360;2023-04-25T05:11:33;93581.69;;;11.62;100.00
6389;BME280;3227;42.654;23.360;2023-04-25T05:14:00;93579.75;;;11.76;100.00
6389;BME280;3227;42.654;23.360;2023-04-25T05:16:26;93587.34;;;11.81;100.00
6389;BME280;3227;42.654;23.360;2023-04-25T05:18:53;93552.44;;;11.71;100.00
6389;BME280;3227;42.654;23.360;2023-04-25T05:21:20;93593.56;;;12.11;100.00
6389;BME280;3227;42.654;23.360;2023-04-25T05:23:49;93582.53;;;12.07;100.00
6389;BME280;3227;42.654;23.360;2023-04-25T05:26:15;93579.44;;;11.92;100.00
6389;BME280;3227;42.654;23.360;2023-04-25T05:28:42;93583.03;;;11.83;100.00
6389;BME280;3227;42.654;23.360;2023-04-25T05:31:09;93562.63;;;11.77;100.00
6389;BME280;3227;42.654;23.360;2023-04-25T05:33:36;93570.91;;;11.91;100.00
6389;BME280;3227;42.654;23.360;2023-04-25T05:36:04;93575.22;;;11.88;100.00
6389;BME280;3227;42.654;23.360;2023-04-25T05:38:31;93581.06;;;11.94;100.00
6389;BME280;3227;42.654;23.360;2023-04-25T05:41:00;93574.16;;;11.99;100.00
6389;BME280;3227;42.654;23.360;2023-04-25T05:43:26;93581.88;;;11.98;100.00
6389;BME280;3227;42.654;23.360;2023-04-25T05:45:53;93586.22;;;11.94;100.00
6389;BME280;3227;42.654;23.360;2023-04-25T05:48:20;93592.59;;;11.73;100.00
6389;BME280;3227;42.654;23.360;2023-04-25T05:50:47;93534.22;;;11.41;100.00
6389;BME280;3227;42.654;23.360;2023-04-25T05:53:14;93594.00;;;11.91;100.00
6389;BME280;3227;42.654;23.360;2023-04-25T05:55:40;93581.69;;;12.07;100.00
6389;BME280;3227;42.654;23.360;2023-04-25T05:58:08;93583.09;;;12.20;100.00
6389;BME280;3227;42.654;23.360;2023-04-25T06:00:35;93583.94;;;12.20;100.00
6389;BME280;3227;42.654;23.360;2023-04-25T06:03:03;93593.97;;;12.33;100.00
6389;BME280;3227;42.654;23.360;2023-04-25T06:05:30;93580.63;;;12.55;100.00
6389;BME280;3227;42.654;23.360;2023-04-25T06:07:56;93583.50;;;12.79;100.00
6389;BME280;3227;42.654;23.360;2023-04-25T06:10:23;93587.19;;;13.03;100.00
6389;BME280;3227;42.654;23.360;2023-04-25T06:12:50;93582.59;;;13.17;99.88
6389;BME280;3227;42.654;23.360;2023-04-25T06:15:19;93593.22;;;13.37;99.92
6389;BME280;3227;42.654;23.360;2023-04-25T06:17:45;93579.88;;;13.55;98.65
6389;BME280;3227;42.654;23.360;2023-04-25T06:20:12;93583.81;;;13.68;96.07
6389;BME280;3227;42.654;23.360;2023-04-25T06:22:39;93590.28;;;13.83;95.31
6389;BME280;3227;42.654;23.360;2023-04-25T06:25:06;93590.41;;;13.79;94.00
6389;BME280;3227;42.654;23.360;2023-04-25T06:27:33;93599.81;;;13.80;93.85
6389;BME280;3227;42.654;23.360;2023-04-25T06:30:00;93593.09;;;13.74;93.91
6389;BME280;3227;42.654;23.360;2023-04-25T06:32:28;93596.75;;;13.67;93.89
6389;BME280;3227;42.654;23.360;2023-04-25T06:34:55;93602.59;;;13.72;93.19
6389;BME280;3227;42.654;23.360;2023-04-25T06:37:22;93593.78;;;13.81;93.39
6389;BME280;3227;42.654;23.360;2023-04-25T06:39:49;93554.16;;;13.85;94.01
6389;BME280;3227;42.654;23.360;2023-04-25T06:42:16;93598.78;;;14.47;90.69
6389;BME280;3227;42.654;23.360;2023-04-25T06:44:43;93579.69;;;14.53;89.78
6389;BME280;3227;42.654;23.360;2023-04-25T06:47:10;93599.84;;;14.68;86.53
6389;BME280;3227;42.654;23.360;2023-04-25T06:49:38;93602.69;;;14.29;86.48
6389;BME280;3227;42.654;23.360;2023-04-25T06:52:04;93596.91;;;14.21;87.46
6389;BME280;3227;42.654;23.360;2023-04-25T06:54:31;93606.59;;;14.13;88.02
6389;BME280;3227;42.654;23.360;2023-04-25T06:56:58;93610.88;;;14.14;87.72
6389;BME280;3227;42.654;23.360;2023-04-25T06:59:26;93604.50;;;14.26;87.57
6389;BME280;3227;42.654;23.360;2023-04-25T07:01:53;93607.28;;;14.20;85.90
6389;BME280;3227;42.654;23.360;2023-04-25T07:04:19;93603.66;;;14.25;86.62
6389;BME280;3227;42.654;23.360;2023-04-25T07:06:48;93602.28;;;14.44;86.75
6389;BME280;3227;42.654;23.360;2023-04-25T07:09:15;93593.81;;;14.69;87.13
6389;BME280;3227;42.654;23.360;2023-04-25T07:11:41;93592.41;;;14.87;83.88
6389;BME280;3227;42.654;23.360;2023-04-25T07:14:08;93581.19;;;14.60;83.11
6389;BME280;3227;42.654;23.360;2023-04-25T07:16:35;93600.50;;;14.46;83.12
6389;BME280;3227;42.654;23.360;2023-04-25T07:19:02;93602.09;;;14.51;83.88
6389;BME280;3227;42.654;23.360;2023-04-25T07:21:29;93596.81;;;14.55;83.73
6389;BME280;3227;42.654;23.360;2023-04-25T07:23:58;93598.28;;;14.64;83.73
6389;BME280;3227;42.654;23.360;2023-04-25T07:26:24;93589.84;;;14.28;84.22
6389;BME280;3227;42.654;23.360;2023-04-25T07:28:51;93599.63;;;14.17;85.01
6389;BME280;3227;42.654;23.360;2023-04-25T07:31:19;93601.94;;;14.26;85.26
6389;BME280;3227;42.654;23.360;2023-04-25T07:33:46;93523.56;;;14.05;84.09
6389;BME280;3227;42.654;23.360;2023-04-25T07:36:13;93597.69;;;14.54;83.25
6389;BME280;3227;42.654;23.360;2023-04-25T07:38:40;93574.63;;;14.50;83.06
6389;BME280;3227;42.654;23.360;2023-04-25T07:41:09;93589.44;;;14.71;82.45
6389;BME280;3227;42.654;23.360;2023-04-25T07:43:35;93567.97;;;14.70;81.36
6389;BME280;3227;42.654;23.360;2023-04-25T07:46:02;93589.25;;;14.77;81.94
6389;BME280;3227;42.654;23.360;2023-04-25T07:48:29;93582.03;;;14.88;80.84
6389;BME280;3227;42.654;23.360;2023-04-25T07:50:56;93582.31;;;14.79;81.09
6389;BME280;3227;42.654;23.360;2023-04-25T07:53:23;93560.41;;;14.66;81.90
6389;BME280;3227;42.654;23.360;2023-04-25T07:55:50;93585.09;;;14.99;82.62
6389;BME280;3227;42.654;23.360;2023-04-25T07:58:18;93557.00;;;15.16;82.27
6389;BME280;3227;42.654;23.360;2023-04-25T08:00:47;93580.81;;;15.51;79.74
6389;BME280;3227;42.654;23.360;2023-04-25T08:03:14;93579.69;;;15.59;79.43
6389;BME280;3227;42.654;23.360;2023-04-25T08:05:40;93577.41;;;15.75;78.92
6389;BME280;3227;42.654;23.360;2023-04-25T08:08:07;93578.88;;;15.82;77.16
6389;BME280;3227;42.654;23.360;2023-04-25T08:10:34;93578.56;;;16.15;78.14
6389;BME280;3227;42.654;23.360;2023-04-25T08:13:01;93580.19;;;16.64;75.89
6389;BME280;3227;42.654;23.360;2023-04-25T08:15:29;93582.97;;;17.03;74.01
6389;BME280;3227;42.654;23.360;2023-04-25T08:17:56;93566.94;;;17.37;73.18
6389;BME280;3227;42.654;23.360;2023-04-25T08:20:23;93583.47;;;17.75;71.37
6389;BME280;3227;42.654;23.360;2023-04-25T08:22:50;93529.50;;;17.64;69.56
6389;BME280;3227;42.654;23.360;2023-04-25T08:25:17;93575.69;;;17.75;67.15
6389;BME280;3227;42.654;23.360;2023-04-25T08:27:43;93568.94;;;17.71;67.81
6389;BME280;3227;42.654;23.360;2023-04-25T08:30:15;93558.63;;;17.49;66.73
6389;BME280;3227;42.654;23.360;2023-04-25T08:32:44;93545.44;;;17.35;67.30
6389;BME280;3227;42.654;23.360;2023-04-25T08:35:10;93554.56;;;17.43;66.28
6389;BME280;3227;42.654;23.360;2023-04-25T08:37:37;93558.56;;;17.50;64.38
6389;BME280;3227;42.654;23.360;2023-04-25T08:40:05;93530.72;;;17.35;64.34
6389;BME280;3227;42.654;23.360;2023-04-25T08:42:35;93561.88;;;17.34;63.22
6389;BME280;3227;42.654;23.360;2023-04-25T08:45:04;93568.16;;;17.28;65.00
6389;BME280;3227;42.654;23.360;2023-04-25T08:47:33;93554.91;;;17.14;65.23
6389;BME280;3227;42.654;23.360;2023-04-25T08:50:02;93581.81;;;17.10;66.98
6389;BME280;3227;42.654;23.360;2023-04-25T08:52:36;93552.00;;;16.80;67.22
6389;BME280;3227;42.654;23.360;2023-04-25T08:55:05;93526.88;;;16.60;70.40
6389;BME280;3227;42.654;23.360;2023-04-25T08:57:34;93569.38;;;16.98;73.62
6389;BME280;3227;42.654;23.360;2023-04-25T09:00:01;93557.84;;;17.05;75.83
6389;BME280;3227;42.654;23.360;2023-04-25T09:02:29;93550.47;;;16.29;77.78
6389;BME280;3227;42.654;23.360;2023-04-25T09:04:57;93553.59;;;15.67;82.32
6389;BME280;3227;42.654;23.360;2023-04-25T09:07:25;93491.00;;;15.36;85.72
6389;BME280;3227;42.654;23.360;2023-04-25T09:09:52;93538.00;;;15.70;84.70
6389;BME280;3227;42.654;23.360;2023-04-25T09:12:19;93517.75;;;15.33;84.61
6389;BME280;3227;42.654;23.360;2023-04-25T09:15:05;93544.22;;;15.65;84.51
6389;BME280;3227;42.654;23.360;2023-04-25T09:17:32;93503.00;;;15.62;85.54
6389;BME280;3227;42.654;23.360;2023-04-25T09:20:06;93527.63;;;15.95;83.87
6389;BME280;3227;42.654;23.360;2023-04-25T09:22:36;93532.97;;;16.14;81.23
6389;BME280;3227;42.654;23.360;2023-04-25T09:25:07;93541.47;;;16.39;81.10
6389;BME280;3227;42.654;23.360;2023-04-25T09:27:34;93531.59;;;16.72;79.96
6389;BME280;3227;42.654;23.360;2023-04-25T09:30:02;93486.84;;;16.70;80.91
6389;BME280;3227;42.654;23.360;2023-04-25T09:32:29;93527.59;;;17.07;76.99
6389;BME280;3227;42.654;23.360;2023-04-25T09:34:57;93526.25;;;17.19;76.75
6389;BME280;3227;42.654;23.360;2023-04-25T09:37:25;93529.31;;;17.28;73.89
6389;BME280;3227;42.654;23.360;2023-04-25T09:39:56;93522.72;;;17.21;72.86
6389;BME280;3227;42.654;23.360;2023-04-25T09:42:25;93537.69;;;17.13;71.34
6389;BME280;3227;42.654;23.360;2023-04-25T09:44:53;93539.38;;;17.14;72.84
6389;BME280;3227;42.654;23.360;2023-04-25T09:47:21;93532.38;;;17.16;70.96
6389;BME280;3227;42.654;23.360;2023-04-25T09:49:50;93538.53;;;17.13;72.74
6389;BME280;3227;42.654;23.360;2023-04-25T09:52:18;93535.66;;;17.21;72.42
6389;BME280;3227;42.654;23.360;2023-04-25T09:54:45;93509.53;;;17.05;74.02
6389;BME280;3227;42.654;23.360;2023-04-25T09:57:16;93539.53;;;17.31;74.58
6389;BME280;3227;42.654;23.360;2023-04-25T09:59:44;93496.88;;;17.20;74.28
6389;BME280;3227;42.654;23.360;2023-04-25T10:02:12;93533.78;;;17.45;73.15
6389;BME280;3227;42.654;23.360;2023-04-25T10:04:39;93516.47;;;17.25;72.91
6389;BME280;3227;42.654;23.360;2023-04-25T10:07:08;93472.28;;;16.67;75.18
6389;BME280;3227;42.654;23.360;2023-04-25T10:09:37;93533.03;;;17.01;75.22
6389;BME280;3227;42.654;23.360;2023-04-25T10:12:05;93534.25;;;16.70;75.49
6389;BME280;3227;42.654;23.360;2023-04-25T10:14:34;93527.31;;;16.26;76.54
6389;BME280;3227;42.654;23.360;2023-04-25T10:17:01;93529.59;;;16.12;77.89
6389;BME280;3227;42.654;23.360;2023-04-25T10:19:28;93529.09;;;16.02;77.63
6389;BME280;3227;42.654;23.360;2023-04-25T10:22:03;93553.00;;;16.07;77.45
6389;BME280;3227;42.654;23.360;2023-04-25T10:24:31;93544.31;;;15.86;77.64
6389;BME280;3227;42.654;23.360;2023-04-25T10:26:58;93544.41;;;15.83;77.10
6389;BME280;3227;42.654;23.360;2023-04-25T10:29:33;93514.81;;;15.69;74.34
6389;BME280;3227;42.654;23.360;2023-04-25T10:32:02;93522.94;;;15.81;72.02
6389;BME280;3227;42.654;23.360;2023-04-25T10:34:40;93516.66;;;16.12;73.55
6389;BME280;3227;42.654;23.360;2023-04-25T10:37:09;93518.72;;;16.47;66.69
6389;BME280;3227;42.654;23.360;2023-04-25T10:39:38;93498.28;;;16.41;57.78
6389;BME280;3227;42.654;23.360;2023-04-25T10:42:06;93518.91;;;16.88;62.44
6389;BME280;3227;42.654;23.360;2023-04-25T10:44:37;93516.75;;;17.39;62.23
6389;BME280;3227;42.654;23.360;2023-04-25T10:47:06;93522.25;;;17.72;61.16
6389;BME280;3227;42.654;23.360;2023-04-25T10:49:37;93496.84;;;17.62;60.35
6389;BME280;3227;42.654;23.360;2023-04-25T10:52:15;93533.25;;;16.51;66.62
6389;BME280;3227;42.654;23.360;2023-04-25T10:54:46;93522.63;;;16.14;69.03
6389;BME280;3227;42.654;23.360;2023-04-25T10:57:35;93503.59;;;15.93;70.92
6389;BME280;3227;42.654;23.360;2023-04-25T11:00:09;93522.28;;;15.76;67.83
6389;BME280;3227;42.654;23.360;2023-04-25T11:02:40;93519.03;;;15.71;71.26
6389;BME280;3227;42.654;23.360;2023-04-25T11:05:08;93525.03;;;15.72;69.81
6389;BME280;3227;42.654;23.360;2023-04-25T11:07:38;93523.72;;;15.83;69.22
6389;BME280;3227;42.654;23.360;2023-04-25T11:10:06;93502.47;;;15.77;70.09
6389;BME280;3227;42.654;23.360;2023-04-25T11:12:33;93519.50;;;16.06;69.86
6389;BME280;3227;42.654;23.360;2023-04-25T11:15:01;93494.75;;;16.22;69.88
6389;BME280;3227;42.654;23.360;2023-04-25T11:17:30;93517.94;;;16.68;69.19
6389;BME280;3227;42.654;23.360;2023-04-25T11:19:58;93516.75;;;16.97;68.48
6389;BME280;3227;42.654;23.360;2023-04-25T11:22:26;93509.75;;;17.21;63.65
6389;BME280;3227;42.654;23.360;2023-04-25T11:24:55;93509.22;;;17.33;64.70
6389;BME280;3227;42.654;23.360;2023-04-25T11:27:22;93511.88;;;17.32;61.61
6389;BME280;3227;42.654;23.360;2023-04-25T11:29:50;93502.59;;;16.64;65.19
6389;BME280;3227;42.654;23.360;2023-04-25T11:32:17;93507.75;;;16.42;68.90
6389;BME280;3227;42.654;23.360;2023-04-25T11:34:46;93478.38;;;15.76;70.23
6389;BME280;3227;42.654;23.360;2023-04-25T11:37:14;93506.97;;;15.95;72.82
6389;BME280;3227;42.654;23.360;2023-04-25T11:39:44;93508.69;;;15.71;75.29
6389;BME280;3227;42.654;23.360;2023-04-25T11:42:12;93511.72;;;15.82;74.57
6389;BME280;3227;42.654;23.360;2023-04-25T11:44:39;93507.19;;;15.89;74.67
6389;BME280;3227;42.654;23.360;2023-04-25T11:47:06;93502.06;;;15.87;74.64
6389;BME280;3227;42.654;23.360;2023-04-25T11:49:33;93538.25;;;16.11;75.24
6389;BME280;3227;42.654;23.360;2023-04-25T11:52:02;93482.75;;;15.97;76.47
6389;BME280;3227;42.654;23.360;2023-04-25T11:54:29;93535.97;;;16.25;73.60
6389;BME280;3227;42.654;23.360;2023-04-25T11:56:56;93502.22;;;15.83;70.38
6389;BME280;3227;42.654;23.360;2023-04-25T11:59:24;93531.00;;;15.97;69.49
6389;BME280;3227;42.654;23.360;2023-04-25T12:01:52;93526.78;;;15.71;72.68
6389;BME280;3227;42.654;23.360;2023-04-25T12:04:20;93522.75;;;15.38;76.74
6389;BME280;3227;42.654;23.360;2023-04-25T12:06:48;93504.75;;;15.36;79.25
6389;BME280;3227;42.654;23.360;2023-04-25T12:09:18;93499.22;;;15.47;75.19
6389;BME280;3227;42.654;23.360;2023-04-25T12:11:47;93508.91;;;15.65;76.00
6389;BME280;3227;42.654;23.360;2023-04-25T12:14:21;93491.19;;;15.79;77.74
6389;BME280;3227;42.654;23.360;2023-04-25T12:16:49;93495.44;;;16.04;81.65
6389;BME280;3227;42.654;23.360;2023-04-25T12:19:18;93494.41;;;16.08;78.37
6389;BME280;3227;42.654;23.360;2023-04-25T12:21:45;93491.47;;;16.17;76.81
6389;BME280;3227;42.654;23.360;2023-04-25T12:24:15;93490.00;;;16.33;76.04
6389;BME280;3227;42.654;23.360;2023-04-25T12:26:50;93489.03;;;16.35;72.30
6389;BME280;3227;42.654;23.360;2023-04-25T12:29:20;93479.41;;;16.39;73.01
6389;BME280;3227;42.654;23.360;2023-04-25T12:31:47;93484.53;;;16.41;71.82
6389;BME280;3227;42.654;23.360;2023-04-25T12:34:14;93474.91;;;16.44;73.78
6389;BME280;3227;42.654;23.360;2023-04-25T12:36:41;93484.66;;;16.59;74.46
6389;BME280;3227;42.654;23.360;2023-04-25T12:39:08;93494.31;;;16.78;73.41
6389;BME280;3227;42.654;23.360;2023-04-25T12:41:35;93515.34;;;16.90;73.89
6389;BME280;3227;42.654;23.360;2023-04-25T12:44:04;93536.63;;;16.53;70.16
6389;BME280;3227;42.654;23.360;2023-04-25T12:46:31;93550.94;;;15.93;71.01
6389;BME280;3227;42.654;23.360;2023-04-25T12:48:57;93549.59;;;15.58;75.67
6389;BME280;3227;42.654;23.360;2023-04-25T12:51:25;93553.94;;;15.32;78.67
6389;BME280;3227;42.654;23.360;2023-04-25T12:53:53;93547.06;;;14.79;81.96
6389;BME280;3227;42.654;23.360;2023-04-25T12:56:20;93530.88;;;14.48;84.47
6389;BME280;3227;42.654;23.360;2023-04-25T12:58:46;93548.47;;;14.62;88.14
6389;BME280;3227;42.654;23.360;2023-04-25T13:01:15;93556.00;;;14.68;87.97
6389;BME280;3227;42.654;23.360;2023-04-25T13:03:42;93558.34;;;14.75;85.37
6389;BME280;3227;42.654;23.360;2023-04-25T13:06:09;93535.25;;;14.72;86.64
6389;BME280;3227;42.654;23.360;2023-04-25T13:08:36;93559.78;;;14.84;86.60
6389;BME280;3227;42.654;23.360;2023-04-25T13:11:03;93556.44;;;14.82;87.05